createdAt,value
2018-04-23T00:01:51.176Z,10.83
2018-04-23T00:04:17.190Z,11.07
2018-04-23T00:06:43.296Z,10.23
2018-04-23T00:09:09.357Z,10.13
2018-04-23T00:11:35.414Z,11.17
2018-04-23T00:14:01.421Z,12.03
2018-04-23T00:16:27.504Z,11.33
2018-04-23T00:18:53.520Z,11.90
2018-04-23T00:21:19.555Z,12.07
2018-04-23T00:23:45.593Z,12.40
2018-04-23T00:26:11.629Z,12.80
2018-04-23T00:28:37.651Z,12.70
2018-04-23T00:31:03.661Z,12.17
2018-04-23T00:33:29.802Z,11.30
2018-04-23T00:35:55.839Z,12.07
2018-04-23T00:38:21.845Z,12.40
2018-04-23T00:40:47.861Z,11.83
2018-04-23T00:43:13.913Z,11.90
2018-04-23T00:45:39.932Z,12.17
2018-04-23T00:48:05.924Z,12.57
2018-04-23T00:50:31.962Z,12.83
2018-04-23T00:55:57.717Z,14.63
2018-04-23T00:58:23.776Z,13.77
2018-04-23T01:00:49.800Z,13.73
2018-04-23T01:03:15.840Z,14.77
2018-04-23T01:05:41.879Z,13.30
2018-04-23T01:08:07.909Z,13.60
2018-04-23T01:10:33.921Z,13.70
2018-04-23T01:13:00.005Z,11.83
2018-04-23T01:15:26.089Z,11.73
2018-04-23T01:17:52.076Z,12.43
2018-04-23T01:20:18.109Z,11.20
2018-04-23T01:22:44.129Z,10.13
2018-04-23T01:25:10.177Z,9.93
2018-04-23T01:27:36.373Z,8.80
2018-04-23T01:30:02.383Z,9.07
2018-04-23T01:32:28.398Z,8.03
2018-04-23T01:34:54.381Z,8.03
2018-04-23T01:37:20.528Z,7.03
2018-04-23T01:39:46.597Z,6.47
2018-04-23T01:42:13.655Z,6.53
2018-04-23T01:44:39.660Z,6.43
2018-04-23T01:47:05.693Z,7.37
2018-04-23T01:49:31.696Z,7.00
2018-04-23T01:51:57.693Z,8.07
2018-04-23T01:54:23.789Z,8.30
2018-04-23T01:56:49.820Z,7.83
2018-04-23T01:59:15.865Z,6.73
2018-04-23T02:01:41.959Z,7.10
2018-04-23T02:04:07.965Z,6.97
2018-04-23T02:06:34.068Z,6.47
2018-04-23T02:09:00.066Z,7.00
2018-04-23T02:11:26.128Z,5.87
2018-04-23T02:13:52.185Z,5.80
2018-04-23T02:16:18.194Z,6.33
2018-04-23T02:18:44.209Z,5.87
2018-04-23T02:21:10.285Z,5.80
2018-04-23T02:23:36.308Z,5.57
2018-04-23T02:26:02.332Z,4.90
2018-04-23T02:28:28.328Z,5.53
2018-04-23T02:30:54.428Z,4.77
2018-04-23T02:33:20.462Z,4.93
2018-04-23T02:35:46.541Z,5.37
2018-04-23T02:38:12.552Z,5.00
2018-04-23T02:40:38.793Z,5.00
2018-04-23T02:43:04.817Z,5.10
2018-04-23T02:45:30.896Z,5.78
2018-04-23T02:47:56.998Z,5.00
2018-04-23T02:50:23.038Z,5.57
2018-04-23T02:52:49.149Z,4.90
2018-04-23T02:55:15.282Z,5.65
2018-04-23T02:57:41.789Z,5.85
2018-04-23T03:00:07.858Z,5.70
2018-04-23T03:02:33.913Z,5.68
2018-04-23T03:04:59.958Z,5.97
2018-04-23T03:07:26.013Z,5.30
2018-04-23T03:09:52.079Z,6.43
2018-04-23T03:12:18.148Z,6.03
2018-04-23T03:14:44.144Z,6.15
2018-04-23T03:17:10.227Z,6.28
2018-04-23T03:19:36.212Z,7.12
2018-04-23T03:22:02.187Z,6.60
2018-04-23T03:24:28.678Z,6.70
2018-04-23T03:26:54.781Z,7.22
2018-04-23T03:29:21.263Z,7.53
2018-04-23T03:31:47.511Z,7.95
2018-04-23T03:34:13.531Z,7.62
2018-04-23T03:36:39.864Z,7.40
2018-04-23T03:39:05.880Z,6.85
2018-04-23T03:41:31.882Z,6.90
2018-04-23T03:43:57.903Z,7.07
2018-04-23T03:46:23.926Z,7.40
2018-04-23T03:48:49.968Z,7.30
2018-04-23T03:51:15.956Z,7.72
2018-04-23T03:53:41.959Z,7.00
2018-04-23T03:56:07.996Z,6.47
2018-04-23T03:58:34.005Z,5.93
2018-04-23T04:01:00.035Z,6.35
2018-04-23T04:03:26.026Z,6.40
2018-04-23T04:05:52.033Z,6.37
2018-04-23T04:08:18.100Z,6.10
2018-04-23T04:10:44.088Z,6.20
2018-04-23T04:13:22.164Z,6.77
2018-04-23T04:16:00.256Z,6.30
2018-04-23T04:18:38.445Z,6.82
2018-04-23T04:21:04.490Z,6.70
2018-04-23T04:23:30.616Z,6.12
2018-04-23T04:25:56.622Z,6.15
2018-04-23T04:28:22.663Z,6.70
2018-04-23T04:30:48.901Z,6.22
2018-04-23T04:33:14.998Z,6.78
2018-04-23T04:35:41.054Z,6.25
2018-04-23T04:38:07.042Z,7.37
2018-04-23T04:40:33.176Z,7.28
2018-04-23T04:42:59.716Z,6.75
2018-04-23T04:45:25.821Z,7.20
2018-04-23T04:47:51.847Z,7.15
2018-04-23T04:50:17.986Z,7.40
2018-04-23T04:52:44.001Z,7.82
2018-04-23T04:55:10.072Z,7.72
2018-04-23T04:57:36.144Z,7.10
2018-04-23T05:00:02.188Z,7.10
2018-04-23T05:02:28.350Z,7.20
2018-04-23T05:04:54.387Z,6.60
2018-04-23T05:07:20.364Z,6.85
2018-04-23T05:09:46.886Z,6.90
2018-04-23T05:12:13.144Z,7.03
2018-04-23T05:14:39.281Z,6.20
2018-04-23T05:17:05.483Z,6.80
2018-04-23T05:19:31.505Z,6.25
2018-04-23T05:21:57.524Z,5.80
2018-04-23T05:24:23.624Z,5.75
2018-04-23T05:26:49.650Z,5.60
2018-04-23T05:29:15.669Z,5.45
2018-04-23T05:31:42.265Z,5.35
2018-04-23T05:34:08.268Z,6.28
2018-04-23T05:36:34.330Z,6.05
2018-04-23T05:39:00.378Z,4.60
2018-04-23T05:41:26.391Z,5.70
2018-04-23T05:43:52.446Z,6.40
2018-04-23T05:46:18.449Z,6.05
2018-04-23T05:48:44.472Z,5.62
2018-04-23T05:51:10.473Z,6.15
2018-04-23T05:53:36.522Z,5.72
2018-04-23T05:56:02.552Z,5.75
2018-04-23T05:58:28.747Z,5.03
2018-04-23T06:00:54.836Z,5.90
2018-04-23T06:03:20.836Z,5.22
2018-04-23T06:05:46.867Z,4.83
2018-04-23T06:08:12.984Z,5.25
2018-04-23T06:10:39.049Z,4.82
2018-04-23T06:13:05.059Z,5.47
2018-04-23T06:15:31.372Z,5.40
2018-04-23T06:17:57.421Z,6.12
2018-04-23T06:20:23.520Z,5.70
2018-04-23T06:22:49.698Z,6.10
2018-04-23T06:25:15.814Z,5.03
2018-04-23T06:27:41.831Z,5.33
2018-04-23T06:30:07.929Z,5.07
2018-04-23T06:32:33.992Z,4.53
2018-04-23T06:34:59.993Z,4.40
2018-04-23T06:37:29.987Z,5.10
2018-04-23T06:39:55.999Z,4.83
2018-04-23T06:42:22.444Z,4.90
2018-04-23T06:44:48.795Z,4.83
2018-04-23T06:47:15.925Z,5.80
2018-04-23T06:49:42.054Z,5.80
2018-04-23T06:52:08.076Z,5.40
2018-04-23T06:54:34.129Z,5.27
2018-04-23T06:57:00.459Z,5.10
2018-04-23T06:59:26.545Z,5.47
2018-04-23T07:01:52.610Z,5.57
2018-04-23T07:04:18.573Z,5.30
2018-04-23T07:06:45.605Z,5.23
2018-04-23T07:09:11.648Z,5.10
2018-04-23T07:11:37.773Z,4.97
2018-04-23T07:14:03.810Z,5.20
2018-04-23T07:16:29.828Z,5.30
2018-04-23T07:18:55.896Z,4.77
2018-04-23T07:21:21.973Z,4.93
2018-04-23T07:23:47.968Z,4.90
2018-04-23T07:26:13.972Z,4.70
2018-04-23T07:28:40.100Z,5.03
2018-04-23T07:31:07.412Z,5.07
2018-04-23T07:33:33.824Z,5.03
2018-04-23T07:35:59.893Z,5.00
2018-04-23T07:38:25.959Z,5.20
2018-04-23T07:40:52.041Z,4.90
2018-04-23T07:43:18.261Z,4.53
2018-04-23T07:45:44.269Z,4.80
2018-04-23T07:48:11.107Z,4.67
2018-04-23T07:50:37.234Z,4.40
2018-04-23T07:53:03.311Z,5.10
2018-04-23T07:55:29.321Z,4.70
2018-04-23T07:57:55.466Z,4.50
2018-04-23T08:00:21.604Z,3.80
2018-04-23T08:02:48.265Z,3.87
2018-04-23T08:05:14.330Z,4.43
2018-04-23T08:07:40.392Z,4.27
2018-04-23T08:10:06.443Z,3.90
2018-04-23T08:12:32.465Z,4.73
2018-04-23T08:14:58.484Z,4.13
2018-04-23T08:17:24.552Z,4.17
2018-04-23T08:19:50.601Z,3.67
2018-04-23T08:23:32.553Z,4.00
2018-04-23T08:25:58.581Z,4.30
2018-04-23T08:28:24.574Z,4.30
2018-04-23T08:30:50.582Z,4.27
2018-04-23T08:33:16.588Z,3.77
2018-04-23T08:35:42.558Z,3.93
2018-04-23T08:38:08.565Z,3.40
2018-04-23T08:40:34.575Z,3.63
2018-04-23T08:43:00.613Z,3.93
2018-04-23T08:45:26.741Z,3.63
2018-04-23T08:47:52.799Z,3.80
2018-04-23T08:50:18.853Z,3.47
2018-04-23T08:52:44.843Z,3.50
2018-04-23T08:55:11.215Z,3.77
2018-04-23T08:57:37.349Z,3.57
2018-04-23T09:00:03.618Z,2.90
2018-04-23T09:02:29.575Z,3.30
2018-04-23T09:04:55.620Z,3.70
2018-04-23T09:07:21.670Z,3.07
2018-04-23T09:09:47.657Z,3.30
2018-04-23T09:12:13.660Z,3.87
2018-04-23T09:14:39.804Z,3.83
2018-04-23T09:17:05.806Z,3.60
2018-04-23T09:19:31.806Z,3.97
2018-04-23T09:21:57.868Z,3.97
2018-04-23T09:24:23.999Z,3.70
2018-04-23T09:26:50.021Z,4.07
2018-04-23T09:29:16.052Z,3.50
2018-04-23T09:31:42.048Z,4.53
2018-04-23T09:34:08.097Z,3.53
2018-04-23T09:36:34.230Z,3.93
2018-04-23T09:39:00.291Z,4.50
2018-04-23T09:41:26.249Z,4.40
2018-04-23T09:43:52.288Z,4.93
2018-04-23T09:46:18.297Z,4.10
2018-04-23T09:48:44.310Z,3.70
2018-04-23T09:51:10.361Z,3.83
2018-04-23T09:53:36.392Z,3.90
2018-04-23T09:56:02.405Z,3.83
2018-04-23T09:58:28.422Z,4.43
2018-04-23T10:00:54.520Z,3.63
2018-04-23T10:03:24.476Z,3.70
2018-04-23T10:05:50.537Z,4.07
2018-04-23T10:08:16.533Z,3.90
2018-04-23T10:10:42.541Z,3.67
2018-04-23T10:13:08.626Z,3.63
2018-04-23T10:15:34.790Z,3.80
2018-04-23T10:18:00.860Z,4.03
2018-04-23T10:20:26.888Z,3.60
2018-04-23T10:22:52.946Z,3.70
2018-04-23T10:25:19.098Z,4.03
2018-04-23T10:27:45.184Z,4.67
2018-04-23T10:30:11.238Z,4.37
2018-04-23T10:32:37.332Z,3.97
2018-04-23T10:35:04.086Z,4.10
2018-04-23T10:37:30.103Z,4.53
2018-04-23T10:39:56.107Z,5.07
2018-04-23T10:42:22.143Z,3.73
2018-04-23T10:44:48.252Z,3.93
2018-04-23T10:47:14.306Z,4.10
2018-04-23T10:49:40.313Z,3.50
2018-04-23T10:52:06.325Z,3.17
2018-04-23T10:54:32.397Z,3.10
2018-04-23T10:56:58.453Z,3.50
2018-04-23T10:59:24.455Z,4.00
2018-04-23T11:01:50.808Z,3.20
2018-04-23T11:04:16.896Z,3.57
2018-04-23T11:06:43.016Z,3.20
2018-04-23T11:09:10.095Z,3.17
2018-04-23T11:11:38.333Z,3.00
2018-04-23T11:14:04.385Z,2.50
2018-04-23T11:16:30.392Z,3.60
2018-04-23T11:18:56.434Z,3.10
2018-04-23T11:21:22.447Z,3.13
2018-04-23T11:23:48.519Z,2.67
2018-04-23T11:26:14.588Z,2.70
2018-04-23T11:28:40.659Z,2.70
2018-04-23T11:31:07.021Z,2.70
2018-04-23T11:33:33.105Z,3.00
2018-04-23T11:35:59.759Z,2.77
2018-04-23T11:38:25.786Z,2.87
2018-04-23T11:40:51.852Z,2.70
2018-04-23T11:43:17.893Z,2.53
2018-04-23T11:45:44.090Z,2.37
2018-04-23T11:48:10.129Z,2.47
2018-04-23T11:50:36.231Z,2.40
2018-04-23T11:53:02.237Z,2.10
2018-04-23T11:55:28.252Z,1.90
2018-04-23T11:57:54.284Z,2.17
2018-04-23T12:00:20.410Z,1.80
2018-04-23T12:02:47.077Z,1.90
2018-04-23T12:05:13.708Z,1.57
2018-04-23T12:07:39.821Z,1.80
2018-04-23T12:10:05.816Z,2.03
2018-04-23T12:12:31.837Z,2.00
2018-04-23T12:14:57.888Z,1.70
2018-04-23T12:17:24.811Z,2.40
2018-04-23T12:19:50.897Z,2.20
2018-04-23T12:22:16.953Z,1.90
2018-04-23T12:24:42.953Z,2.03
2018-04-23T12:27:09.131Z,1.90
2018-04-23T12:29:35.266Z,2.47
2018-04-23T12:32:01.393Z,2.90
2018-04-23T12:34:27.449Z,2.70
2018-04-23T12:36:53.520Z,2.40
2018-04-23T12:39:19.569Z,2.73
2018-04-23T12:41:45.695Z,2.93
2018-04-23T12:44:12.168Z,3.57
2018-04-23T12:46:38.199Z,2.70
2018-04-23T12:49:10.989Z,3.40
2018-04-23T12:51:37.069Z,3.50
2018-04-23T12:54:03.237Z,3.90
2018-04-23T12:56:29.347Z,5.20
2018-04-23T12:58:55.420Z,4.10
2018-04-23T13:01:21.423Z,6.07
2018-04-23T13:03:47.559Z,5.70
2018-04-23T13:06:13.597Z,4.30
2018-04-23T13:08:39.602Z,5.27
2018-04-23T13:11:05.611Z,5.07
2018-04-23T13:13:31.717Z,4.30
2018-04-23T13:15:57.844Z,4.23
2018-04-23T13:18:23.929Z,4.07
2018-04-23T13:20:49.969Z,6.57
2018-04-23T13:23:16.021Z,5.47
2018-04-23T13:25:42.108Z,5.73
2018-04-23T13:28:08.135Z,4.30
2018-04-23T13:30:34.219Z,4.30
2018-04-23T13:33:00.221Z,6.57
2018-04-23T13:35:26.236Z,4.27
2018-04-23T13:37:52.322Z,3.50
2018-04-23T13:40:18.356Z,3.80
2018-04-23T13:42:44.385Z,3.23
2018-04-23T13:45:10.444Z,4.77
2018-04-23T13:47:36.452Z,3.33
2018-04-23T13:50:02.466Z,3.10
2018-04-23T13:52:28.503Z,2.80
2018-04-23T13:54:54.498Z,2.90
2018-04-23T13:57:20.488Z,2.50
2018-04-23T13:59:46.463Z,2.37
2018-04-23T14:02:12.461Z,2.80
2018-04-23T14:04:38.445Z,2.97
2018-04-23T14:07:04.493Z,3.20
2018-04-23T14:09:30.565Z,3.17
2018-04-23T14:12:03.547Z,3.30
2018-04-23T14:14:29.684Z,3.43
2018-04-23T14:16:55.772Z,3.17
2018-04-23T14:19:21.790Z,3.40
2018-04-23T14:21:48.393Z,3.07
2018-04-23T14:24:14.390Z,3.23
2018-04-23T14:26:40.397Z,2.63
2018-04-23T14:29:06.384Z,3.10
2018-04-23T14:31:32.441Z,2.30
2018-04-23T14:33:58.458Z,2.23
2018-04-23T14:36:24.460Z,2.87
2018-04-23T14:38:50.517Z,2.60
2018-04-23T14:41:16.574Z,1.97
2018-04-23T14:43:42.701Z,2.47
2018-04-23T14:46:08.737Z,1.43
2018-04-23T14:48:34.855Z,1.93
2018-04-23T14:51:00.894Z,1.37
2018-04-23T14:53:26.914Z,2.20
2018-04-23T14:55:53.036Z,1.60
2018-04-23T14:58:19.141Z,1.70
2018-04-23T15:00:45.153Z,2.00
2018-04-23T15:03:11.145Z,1.90
2018-04-23T15:05:37.600Z,1.60
2018-04-23T15:08:03.684Z,2.00
2018-04-23T15:10:29.750Z,1.60
2018-04-23T15:12:55.861Z,1.50
2018-04-23T15:15:21.882Z,1.50
2018-04-23T15:17:48.005Z,1.20
2018-04-23T15:20:14.047Z,1.10
2018-04-23T15:22:40.065Z,1.50
2018-04-23T15:25:06.080Z,1.13
2018-04-23T15:27:32.193Z,1.70
2018-04-23T15:29:58.292Z,1.13
2018-04-23T15:32:24.276Z,1.20
2018-04-23T15:34:50.324Z,1.67
2018-04-23T15:37:16.384Z,1.90
2018-04-23T15:39:42.419Z,1.67
2018-04-23T15:42:08.473Z,1.63
2018-04-23T15:44:34.463Z,1.80
2018-04-23T15:47:00.485Z,1.90
2018-04-23T15:49:26.590Z,1.63
2018-04-23T15:51:52.602Z,1.67
2018-04-23T15:54:18.645Z,1.80
2018-04-23T15:56:44.668Z,1.70
2018-04-23T15:59:10.695Z,2.00
2018-04-23T16:01:36.713Z,1.80
2018-04-23T16:04:02.701Z,2.00
2018-04-23T16:06:28.701Z,1.57
2018-04-23T16:08:54.822Z,1.93
2018-04-23T16:11:20.850Z,1.70
2018-04-23T16:13:46.851Z,1.90
2018-04-23T16:16:12.918Z,1.80
2018-04-23T16:18:39.005Z,1.73
2018-04-23T16:21:04.999Z,1.90
2018-04-23T16:23:31.081Z,2.10
2018-04-23T16:25:57.184Z,1.93
2018-04-23T16:28:23.271Z,1.60
2018-04-23T16:30:49.316Z,1.90
2018-04-23T16:33:15.326Z,2.10
2018-04-23T16:35:41.399Z,1.87
2018-04-23T16:38:07.540Z,2.00
2018-04-23T16:40:33.695Z,2.37
2018-04-23T16:42:59.700Z,1.77
2018-04-23T16:45:25.824Z,1.80
2018-04-23T16:47:51.933Z,1.80
2018-04-23T16:50:24.874Z,1.80
2018-04-23T16:52:50.994Z,1.83
2018-04-23T16:55:17.023Z,2.03
2018-04-23T16:57:43.036Z,1.80
2018-04-23T17:00:09.218Z,1.53
2018-04-23T17:02:35.330Z,1.70
2018-04-23T17:05:01.362Z,1.47
2018-04-23T17:07:27.378Z,2.00
2018-04-23T17:09:53.471Z,2.07
2018-04-23T17:12:19.514Z,2.10
2018-04-23T17:14:45.555Z,2.17
2018-04-23T17:17:11.633Z,1.80
2018-04-23T17:19:37.676Z,2.70
2018-04-23T17:22:03.725Z,2.40
2018-04-23T17:24:29.763Z,2.50
2018-04-23T17:26:55.786Z,2.43
2018-04-23T17:29:21.962Z,2.60
2018-04-23T17:31:47.977Z,2.40
2018-04-23T17:34:14.106Z,2.20
2018-04-23T17:36:40.160Z,2.60
2018-04-23T17:39:06.389Z,2.80
2018-04-23T17:41:32.529Z,2.50
2018-04-23T17:43:58.636Z,3.00
2018-04-23T17:46:24.672Z,3.40
2018-04-23T17:48:50.827Z,2.87
2018-04-23T17:51:16.879Z,3.00
2018-04-23T17:53:42.896Z,3.00
2018-04-23T17:56:09.136Z,2.87
2018-04-23T17:58:35.209Z,3.20
2018-04-23T18:01:01.298Z,2.60
2018-04-23T18:03:27.382Z,2.70
2018-04-23T18:05:53.501Z,2.57
2018-04-23T18:08:19.613Z,2.47
2018-04-23T18:10:45.728Z,2.40
2018-04-23T18:13:11.747Z,2.40
2018-04-23T18:15:38.060Z,2.50
2018-04-23T18:18:04.239Z,1.83
2018-04-23T18:20:30.314Z,2.30
2018-04-23T18:22:56.432Z,2.40
2018-04-23T18:25:22.470Z,1.80
2018-04-23T18:27:48.615Z,2.10
2018-04-23T18:30:14.767Z,2.37
2018-04-23T18:32:40.829Z,1.90
2018-04-23T18:35:06.959Z,1.83
2018-04-23T18:37:33.097Z,2.10
2018-04-23T18:39:59.190Z,2.10
2018-04-23T18:42:25.254Z,1.92
2018-04-23T18:44:51.302Z,2.20
2018-04-23T18:47:17.522Z,2.17
2018-04-23T18:49:44.271Z,2.12
2018-04-23T18:52:10.262Z,2.20
2018-04-23T18:54:36.387Z,2.03
2018-04-23T18:57:02.493Z,2.67
2018-04-23T18:59:28.623Z,2.07
2018-04-23T19:01:54.714Z,2.08
2018-04-23T19:04:20.788Z,1.75
2018-04-23T19:06:46.890Z,1.95
2018-04-23T19:09:12.936Z,2.27
2018-04-23T19:11:39.087Z,2.17
2018-04-23T19:14:05.105Z,2.20
2018-04-23T19:16:31.232Z,1.85
2018-04-23T19:18:57.913Z,1.90
2018-04-23T19:21:23.961Z,1.90
2018-04-23T19:23:50.073Z,2.25
2018-04-23T19:26:16.223Z,1.80
2018-04-23T19:28:42.265Z,1.90
2018-04-23T19:31:08.342Z,2.28
2018-04-23T19:33:34.356Z,2.23
2018-04-23T19:36:00.459Z,2.40
2018-04-23T19:38:26.497Z,2.80
2018-04-23T19:40:52.550Z,3.20
2018-04-23T19:43:19.165Z,3.30
2018-04-23T19:45:45.289Z,2.58
2018-04-23T19:48:11.426Z,2.90
2018-04-23T19:50:37.476Z,3.10
2018-04-23T19:53:03.577Z,3.20
2018-04-23T19:55:29.717Z,2.87
2018-04-23T19:57:55.875Z,3.70
2018-04-23T20:00:21.937Z,3.20
2018-04-23T20:02:48.018Z,3.72
2018-04-23T20:05:14.152Z,3.22
2018-04-23T20:07:40.221Z,3.42
2018-04-23T20:10:06.302Z,3.42
2018-04-23T20:12:32.383Z,3.33
2018-04-23T20:14:58.536Z,3.83
2018-04-23T20:17:24.510Z,3.40
2018-04-23T20:19:50.522Z,3.55
2018-04-23T20:22:16.602Z,3.08
2018-04-23T20:24:42.623Z,3.80
2018-04-23T20:27:08.765Z,4.00
2018-04-23T20:29:34.832Z,3.87
2018-04-23T20:32:00.962Z,3.70
2018-04-23T20:34:26.961Z,3.45
2018-04-23T20:36:52.996Z,4.43
2018-04-23T20:39:19.107Z,4.65
2018-04-23T20:41:45.318Z,3.05
2018-04-23T20:44:11.492Z,3.70
2018-04-23T20:46:37.520Z,3.70
2018-04-23T20:49:03.610Z,4.15
2018-04-23T20:51:29.758Z,3.35
2018-04-23T20:53:55.782Z,3.30
2018-04-23T20:56:21.810Z,3.90
2018-04-23T20:58:47.881Z,3.75
2018-04-23T21:01:13.983Z,4.00
2018-04-23T21:03:40.089Z,4.30
2018-04-23T21:06:06.141Z,3.80
2018-04-23T21:08:32.156Z,4.50
2018-04-23T21:10:58.234Z,3.80
2018-04-23T21:13:24.298Z,4.53
2018-04-23T21:15:50.329Z,4.45
2018-04-23T21:18:16.388Z,4.90
2018-04-23T21:20:42.451Z,4.72
2018-04-23T21:23:09.115Z,4.20
2018-04-23T21:25:35.148Z,4.65
2018-04-23T21:28:01.189Z,3.72
2018-04-23T21:30:27.315Z,4.50
2018-04-23T21:32:53.464Z,3.92
2018-04-23T21:35:19.492Z,4.15
2018-04-23T21:37:45.647Z,3.90
2018-04-23T21:40:11.673Z,3.72
2018-04-23T21:42:37.786Z,3.47
2018-04-23T21:45:03.827Z,3.80
2018-04-23T21:47:29.869Z,3.75
2018-04-23T21:49:55.956Z,4.28
2018-04-23T21:52:22.040Z,3.83
2018-04-23T21:54:48.071Z,4.10
2018-04-23T21:57:14.078Z,3.70
2018-04-23T21:59:40.796Z,3.80
2018-04-23T22:02:06.817Z,4.28
2018-04-23T22:04:32.865Z,3.70
2018-04-23T22:06:58.950Z,3.58
2018-04-23T22:09:25.032Z,3.78
2018-04-23T22:11:51.028Z,3.75
2018-04-23T22:14:17.097Z,3.40
2018-04-23T22:16:43.167Z,3.28
2018-04-23T22:19:09.300Z,3.20
2018-04-23T22:21:35.423Z,3.20
2018-04-23T22:24:01.429Z,3.12
2018-04-23T22:26:27.558Z,3.08
2018-04-23T22:28:53.911Z,3.33
2018-04-23T22:31:19.976Z,3.62
2018-04-23T22:33:46.029Z,3.33
2018-04-23T22:36:12.063Z,2.90
2018-04-23T22:38:38.106Z,2.85
2018-04-23T22:41:05.192Z,3.87
2018-04-23T22:43:32.159Z,3.33
2018-04-23T22:45:58.213Z,2.70
2018-04-23T22:48:24.252Z,2.58
2018-04-23T22:50:50.281Z,2.97
2018-04-23T22:53:16.290Z,3.50
2018-04-23T22:55:42.338Z,4.15
2018-04-23T22:58:08.397Z,3.08
2018-04-23T23:00:34.442Z,3.78
2018-04-23T23:03:00.449Z,4.00
2018-04-23T23:05:26.477Z,4.28
2018-04-23T23:07:52.496Z,4.30
2018-04-23T23:10:18.522Z,3.87
2018-04-23T23:12:44.560Z,4.15
2018-04-23T23:15:11.176Z,3.80
2018-04-23T23:17:37.300Z,3.92
2018-04-23T23:20:03.372Z,3.55
2018-04-23T23:22:29.398Z,3.90
2018-04-23T23:24:55.915Z,4.37
2018-04-23T23:27:22.016Z,3.70
2018-04-23T23:29:48.180Z,4.10
2018-04-23T23:32:14.187Z,3.97
2018-04-23T23:34:40.176Z,4.10
2018-04-23T23:37:06.212Z,3.85
2018-04-23T23:39:32.233Z,4.20
2018-04-23T23:41:58.245Z,4.03
2018-04-23T23:44:24.270Z,4.72
2018-04-23T23:46:50.360Z,4.55
2018-04-23T23:49:16.410Z,3.70
2018-04-23T23:51:42.438Z,4.22
2018-04-23T23:54:08.485Z,4.32
2018-04-23T23:56:34.496Z,4.20
2018-04-23T23:59:00.512Z,4.53
